Time;durP1;ratioP1;P1;durP2;ratioP2;P2;SDS_P1;SDS_P2;PMS_P1;PMS_P2;Temp;Humidity;BMP_temperature;BMP_pressure;BME280_temperature;BME280_humidity;BME280_pressure;Samples;Min_cycle;Max_cycle;Signal;HPM_P1;HPM_P2
2021/01/04 00:02:05;;;;;;;43.83;16.85;;;;;;;18.83;48.81;156074.95;1714265;82;21889;-74
2021/01/04 00:05:13;;;;;;;41.53;16.10;;;;;;;18.75;49.15;156053.84;1709925;83;21190;-74
2021/01/04 00:08:28;;;;;;;42.23;16.75;;;;;;;18.70;48.87;156041.92;1709035;83;21340;-74
2021/01/04 00:11:31;;;;;;;38.20;17.40;;;;;;;18.58;48.58;156010.23;1715764;83;21192;-73
2021/01/04 00:14:20;;;;;;;41.40;15.90;;;;;;;18.53;48.92;155995.70;1686474;83;21215;-73
2021/01/04 00:17:44;;;;;;;40.98;15.48;;;;;;;18.63;48.88;156022.16;1715591;83;21871;-74
2021/01/04 00:20:36;;;;;;;44.55;18.00;;;;;;;18.67;48.66;156034.03;1677733;83;21162;-74
2021/01/04 00:23:41;;;;;;;36.73;16.12;;;;;;;18.88;48.42;156088.13;1702639;84;21693;-74
2021/01/04 00:26:18;;;;;;;46.50;16.50;;;;;;;18.82;48.13;156072.31;1701724;82;21489;-73
2021/01/04 00:28:50;;;;;;;45.88;17.30;;;;;;;18.54;48.43;155998.36;1712548;82;21722;-74
2021/01/04 00:31:33;;;;;;;41.15;16.35;;;;;;;18.72;48.26;156045.91;1692253;83;21186;-74
2021/01/04 00:34:15;;;;;;;42.83;15.95;;;;;;;18.81;47.98;156069.66;1716828;83;21282;-74
2021/01/04 00:37:22;;;;;;;41.45;16.32;;;;;;;18.74;48.18;156051.19;1716221;83;21186;-74
2021/01/04 00:40:32;;;;;;;34.05;14.98;;;;;;;18.66;48.13;156030.03;1716900;83;21272;-74
2021/01/04 00:43:07;;;;;;;40.98;15.75;;;;;;;18.71;48.13;156043.27;1717239;82;21265;-74
2021/01/04 00:45:46;;;;;;;39.20;16.12;;;;;;;18.81;47.93;156070.97;1716939;83;21278;-74
2021/01/04 00:48:38;;;;;;;44.83;16.25;;;;;;;18.86;47.80;156084.19;1716341;83;21352;-74
2021/01/04 00:51:41;;;;;;;36.98;15.53;;;;;;;18.85;47.89;156080.25;1716826;83;21328;-73
2021/01/04 00:54:29;;;;;;;42.20;16.20;;;;;;;18.81;47.95;156069.66;1711764;83;21229;-75
2021/01/04 00:57:28;;;;;;;33.10;14.75;;;;;;;18.87;47.71;156086.83;1702985;83;21210;-74
2021/01/04 01:00:22;;;;;;;55.38;16.35;;;;;;;18.77;47.53;156059.08;1702959;84;21376;-74
2021/01/04 01:03:29;;;;;;;39.35;15.98;;;;;;;18.64;47.67;156026.09;1702877;84;21341;-73
2021/01/04 01:06:12;;;;;;;37.67;16.80;;;;;;;18.62;47.79;156020.81;1747483;82;21174;-73
2021/01/04 01:08:44;;;;;;;39.83;15.32;;;;;;;18.66;47.90;156030.03;1688197;85;21245;-73
2021/01/04 01:11:22;;;;;;;35.35;15.23;;;;;;;18.71;47.80;156043.27;1685605;84;21351;-73
2021/01/04 01:14:22;;;;;;;35.48;14.40;;;;;;;18.74;47.75;156051.19;1699557;82;21229;-72
2021/01/04 01:17:04;;;;;;;;;;;;;;;18.84;47.60;156077.59;1742877;82;21196;-73
2021/01/04 01:19:57;;;;;;;37.13;14.47;;;;;;;18.85;47.59;156081.55;1740241;82;20186;-73
2021/01/04 01:22:36;;;;;;;44.63;14.93;;;;;;;18.80;47.68;156068.38;1740193;82;21240;-74
2021/01/04 01:25:16;;;;;;;35.37;15.93;;;;;;;18.90;47.63;156093.42;1741832;82;21185;-73
2021/01/04 01:28:35;;;;;;;43.78;17.27;;;;;;;18.95;47.53;156106.64;1745285;81;21228;-74
2021/01/04 01:31:37;;;;;;;37.75;15.32;;;;;;;19.14;47.21;156158.22;1685673;85;21335;-72
2021/01/04 01:34:26;;;;;;;45.65;18.42;;;;;;;18.76;47.67;156057.78;1685729;85;21212;-73
2021/01/04 01:37:19;;;;;;;40.95;17.05;;;;;;;18.66;47.69;156031.39;1685700;84;21358;-73
2021/01/04 01:40:14;;;;;;;40.28;16.37;;;;;;;18.70;47.83;156041.92;1685843;83;21902;-73
2021/01/04 01:43:21;;;;;;;37.45;15.98;;;;;;;18.76;47.70;156057.78;1721585;83;21320;-73
2021/01/04 01:46:06;;;;;;;37.67;15.23;;;;;;;18.72;47.77;156045.91;1702661;84;21813;-75
2021/01/04 01:49:15;;;;;;;35.20;16.15;;;;;;;18.66;47.87;156030.03;1690562;83;21230;-75
2021/01/04 01:52:26;;;;;;;46.65;17.55;;;;;;;18.76;47.71;156056.44;1719781;83;21197;-74
2021/01/04 01:55:14;;;;;;;;;;;;;;;18.71;47.85;156043.27;1724731;81;21399;-72
2021/01/04 01:58:15;;;;;;;40.12;16.12;;;;;;;18.73;47.79;156048.56;1717852;82;20259;-73
2021/01/04 02:01:04;;;;;;;41.02;15.85;;;;;;;18.73;47.67;156049.84;1726755;82;21295;-73
2021/01/04 02:04:02;;;;;;;39.80;14.80;;;;;;;18.71;47.65;156043.27;1656519;85;21211;-74
2021/01/04 02:06:55;;;;;;;34.43;15.32;;;;;;;18.65;47.80;156028.75;1669120;85;21195;-74
2021/01/04 02:09:32;;;;;;;37.53;15.05;;;;;;;18.49;47.93;155985.19;1690937;82;21145;-75
2021/01/04 02:12:18;;;;;;;34.35;14.95;;;;;;;18.67;48.21;156032.69;1707064;82;21713;-74
2021/01/04 02:15:19;;;;;;;36.98;13.93;;;;;;;18.76;47.84;156057.78;1709337;84;21246;-75
2021/01/04 02:18:20;;;;;;;36.60;14.73;;;;;;;18.75;48.23;156055.14;1711281;84;21222;-74
2021/01/04 02:21:47;;;;;;;34.78;14.63;;;;;;;18.68;47.91;156035.33;1654210;85;21767;-73
2021/01/04 02:24:25;;;;;;;36.63;14.63;;;;;;;18.65;47.90;156028.75;1704959;83;21178;-73
2021/01/04 02:27:17;;;;;;;38.25;14.78;;;;;;;18.55;47.92;156002.34;1687874;85;21348;-74
2021/01/04 02:29:50;;;;;;;32.05;14.80;;;;;;;18.70;47.83;156041.92;1667975;85;21218;-73
2021/01/04 02:32:22;;;;;;;35.03;13.65;;;;;;;18.89;47.52;156090.78;1686463;85;21305;-73
2021/01/04 02:34:57;;;;;;;31.40;13.70;;;;;;;18.70;47.90;156040.63;1687011;85;21254;-73
2021/01/04 02:37:30;;;;;;;29.55;13.30;;;;;;;18.64;47.85;156024.75;1686747;85;21270;-74
2021/01/04 02:40:07;;;;;;;36.28;14.35;;;;;;;18.80;47.60;156067.02;1704803;83;21233;-73
2021/01/04 02:42:45;;;;;;;30.72;13.83;;;;;;;18.74;47.82;156051.19;1713189;84;21230;-74
2021/01/04 02:45:25;;;;;;;28.47;12.95;;;;;;;18.83;47.64;156074.95;1716672;83;21205;-73
2021/01/04 02:48:07;;;;;;;31.87;13.08;;;;;;;18.81;47.72;156069.66;1717158;83;21213;-73
2021/01/04 02:50:59;;;;;;;29.07;13.72;;;;;;;18.83;47.68;156076.25;1716558;83;21237;-72
2021/01/04 02:53:46;;;;;;;27.27;13.53;;;;;;;18.86;47.56;156084.19;1747553;82;21173;-72
2021/01/04 02:56:40;;;;;;;30.82;13.60;;;;;;;18.84;47.77;156078.89;1744717;82;21194;-72
2021/01/04 02:59:26;;;;;;;26.65;12.73;;;;;;;18.84;47.87;156077.59;1715467;82;21215;-74
2021/01/04 03:02:20;;;;;;;28.57;12.35;;;;;;;18.88;47.97;156088.13;1703113;84;21848;-73
2021/01/04 03:04:52;;;;;;;26.40;12.47;;;;;;;18.80;48.04;156068.38;1697408;84;21249;-74
2021/01/04 03:07:32;;;;;;;32.73;13.55;;;;;;;18.81;48.12;156069.66;1702654;84;21289;-73
2021/01/04 03:10:22;;;;;;;32.77;13.47;;;;;;;18.79;48.04;156065.72;1708748;83;21198;-73
2021/01/04 03:12:59;;;;;;;30.90;13.85;;;;;;;18.89;47.87;156092.12;1716446;83;21595;-74
2021/01/04 03:15:57;;;;;;;29.80;13.72;;;;;;;18.86;47.87;156084.19;1717444;83;21369;-73
2021/01/04 03:18:49;;;;;;;27.98;12.95;;;;;;;18.85;47.79;156080.25;1715292;82;21154;-73
2021/01/04 03:21:26;;;;;;;30.40;13.72;;;;;;;18.88;47.65;156088.13;1705554;82;21672;-73
2021/01/04 03:23:59;;;;;;;26.42;12.05;;;;;;;18.84;47.74;156077.59;1707326;84;21208;-75
2021/01/04 03:26:45;;;;;;;26.85;12.90;;;;;;;18.83;47.83;156076.25;1731593;81;21260;-73
2021/01/04 03:29:17;;;;;;;28.05;12.55;;;;;;;18.76;48.01;156056.44;1753110;81;21679;-73
2021/01/04 03:31:50;;;;;;;27.35;12.15;;;;;;;18.77;48.06;156059.08;1717723;83;21386;-73
2021/01/04 03:34:22;;;;;;;25.90;12.75;;;;;;;18.70;48.49;156041.92;1717554;83;21341;-73
2021/01/04 03:36:54;;;;;;;25.25;11.73;;;;;;;18.72;48.44;156047.20;1716900;83;21311;-73
2021/01/04 03:39:29;;;;;;;26.57;12.30;;;;;;;18.76;48.61;156057.78;1714480;83;21272;-73
2021/01/04 03:42:02;;;;;;;26.02;13.60;;;;;;;18.66;48.39;156031.39;1714338;83;21751;-74
2021/01/04 03:44:35;;;;;;;26.07;12.70;;;;;;;18.79;48.19;156064.38;1713075;84;21222;-73
2021/01/04 03:47:07;;;;;;;27.75;12.95;;;;;;;18.79;48.21;156064.38;1710747;83;21196;-73
2021/01/04 03:49:40;;;;;;;29.48;13.15;;;;;;;18.72;48.24;156047.20;1709588;82;21231;-74
2021/01/04 03:52:12;;;;;;;26.70;12.68;;;;;;;18.59;48.48;156011.58;1707873;82;21189;-73
2021/01/04 03:54:45;;;;;;;28.52;12.90;;;;;;;18.71;48.41;156043.27;1707099;84;21219;-73
2021/01/04 03:57:17;;;;;;;27.37;13.88;;;;;;;18.72;48.32;156045.91;1709887;83;21269;-72
2021/01/04 03:59:50;;;;;;;25.65;11.43;;;;;;;18.71;48.38;156043.27;1704429;83;21369;-74
2021/01/04 04:02:22;;;;;;;24.57;11.75;;;;;;;18.87;48.09;156086.83;1717641;83;21385;-74
2021/01/04 04:04:55;;;;;;;26.85;11.50;;;;;;;18.89;48.06;156090.78;1717902;83;21343;-73
2021/01/04 04:07:27;;;;;;;25.50;11.80;;;;;;;18.90;47.99;156093.42;1717585;83;21338;-73
2021/01/04 04:10:00;;;;;;;21.57;11.05;;;;;;;18.93;47.88;156102.66;1719013;83;21353;-73
2021/01/04 04:12:34;;;;;;;24.92;10.90;;;;;;;18.82;48.07;156072.31;1698979;84;21739;-73
2021/01/04 04:15:09;;;;;;;22.48;11.50;;;;;;;18.67;48.14;156034.03;1729825;82;21299;-73
2021/01/04 04:17:42;;;;;;;25.60;11.25;;;;;;;18.65;48.08;156027.39;1709161;83;21402;-73
2021/01/04 04:20:21;;;;;;;23.18;11.12;;;;;;;18.72;48.07;156045.91;1686222;85;21338;-73
2021/01/04 04:22:55;;;;;;;23.27;11.35;;;;;;;18.82;48.17;156072.31;1657367;85;21850;-74
2021/01/04 04:25:28;;;;;;;23.42;11.00;;;;;;;18.86;47.99;156082.89;1709695;81;21701;-72
2021/01/04 04:28:00;;;;;;;23.02;11.03;;;;;;;18.81;47.91;156069.66;1704116;82;21396;-74
2021/01/04 04:30:33;;;;;;;25.12;11.30;;;;;;;18.81;48.13;156070.97;1717773;82;21804;-75
2021/01/04 04:33:05;;;;;;;24.57;10.95;;;;;;;18.73;48.18;156048.56;1717619;83;21342;-74
2021/01/04 04:35:38;;;;;;;21.95;10.85;;;;;;;18.85;48.05;156081.55;1718709;83;21318;-74
2021/01/04 04:38:10;;;;;;;24.72;10.25;;;;;;;18.89;48.24;156090.78;1721643;83;21191;-75
2021/01/04 04:40:43;;;;;;;23.62;10.58;;;;;;;19.06;47.75;156138.34;1724083;83;21388;-72
2021/01/04 04:43:18;;;;;;;23.95;11.57;;;;;;;19.11;48.06;156150.28;1703619;84;21380;-76
2021/01/04 04:45:51;;;;;;;23.75;11.18;;;;;;;18.93;49.12;156102.66;1728401;83;21244;-75
2021/01/04 04:48:34;;;;;;;23.02;11.25;;;;;;;18.89;49.76;156092.12;1721915;83;21379;-75
2021/01/04 04:51:28;;;;;;;25.55;11.35;;;;;;;18.78;49.04;156063.08;1717025;82;21782;-77
2021/01/04 04:54:14;;;;;;;22.77;10.55;;;;;;;18.76;49.08;156057.78;1717477;83;21362;-75
2021/01/04 04:57:09;;;;;;;28.25;11.93;;;;;;;18.76;48.86;156057.78;1722497;81;21370;-75
2021/01/04 04:59:55;;;;;;;21.73;9.55;;;;;;;18.79;49.00;156064.38;1721218;83;21318;-74
2021/01/04 05:02:54;;;;;;;24.63;10.85;;;;;;;18.78;48.70;156063.08;1711553;83;21859;-79
2021/01/04 05:05:32;;;;;;;23.12;11.10;;;;;;;18.77;48.53;156060.44;1715298;83;21219;-79
2021/01/04 05:08:18;;;;;;;22.60;10.25;;;;;;;18.74;48.47;156051.19;1723963;82;21211;-76
2021/01/04 05:10:51;;;;;;;21.30;9.88;;;;;;;18.80;48.63;156068.38;1712335;83;21437;-74
2021/01/04 05:13:27;;;;;;;21.20;10.20;;;;;;;18.78;48.44;156061.72;1685813;84;21422;-75
2021/01/04 05:16:18;;;;;;;22.85;10.40;;;;;;;18.75;48.80;156053.84;1685829;85;21284;-79
2021/01/04 05:19:25;;;;;;;22.10;10.53;;;;;;;18.70;48.65;156041.92;1686781;82;21184;-79
2021/01/04 05:22:34;;;;;;;21.87;10.30;;;;;;;18.70;48.90;156041.92;1713771;84;21730;-72
2021/01/04 05:25:48;;;;;;;21.52;9.83;;;;;;;18.66;51.14;156030.03;1724241;81;21398;-73
2021/01/04 05:28:49;;;;;;;26.15;11.45;;;;;;;18.78;48.78;156061.72;1706016;81;21359;-76
2021/01/04 05:31:52;;;;;;;23.77;10.13;;;;;;;18.86;48.80;156082.89;1719069;83;21349;-80
2021/01/04 05:34:52;;;;;;;23.35;10.65;;;;;;;18.78;48.93;156061.72;1684704;84;21844;-79
2021/01/04 05:37:50;;;;;;;22.05;10.63;;;;;;;18.84;48.76;156077.59;1713154;84;21381;-80
2021/01/04 05:40:50;;;;;;;23.52;10.60;;;;;;;18.82;48.74;156073.61;1714805;82;21708;-79
2021/01/04 05:43:43;;;;;;;26.12;10.78;;;;;;;18.84;48.82;156077.59;1715070;84;21332;-79
2021/01/04 05:46:26;;;;;;;21.68;10.35;;;;;;;18.82;48.61;156072.31;1714158;82;21206;-79
2021/01/04 05:49:24;;;;;;;23.92;10.32;;;;;;;18.67;48.67;156034.03;1714304;84;21229;-79
2021/01/04 05:51:56;;;;;;;24.27;11.38;;;;;;;18.56;48.70;156003.64;1723012;82;21311;-79
2021/01/04 05:54:35;;;;;;;20.23;10.20;;;;;;;18.46;49.72;155977.25;1740502;81;21193;-79
2021/01/04 05:57:16;;;;;;;23.85;12.03;;;;;;;18.48;49.84;155982.53;1742588;82;21403;-79
2021/01/04 05:59:53;;;;;;;28.60;11.93;;;;;;;18.57;49.80;156007.64;1742562;82;21351;-81
2021/01/04 06:02:34;;;;;;;28.50;12.63;;;;;;;18.79;49.51;156064.38;1739913;82;21423;-79
2021/01/04 06:05:15;;;;;;;29.02;12.23;;;;;;;18.77;49.44;156060.44;1713518;84;21364;-79
2021/01/04 06:07:47;;;;;;;;;;;;;;;18.69;49.56;156039.27;1740657;81;21876;-80
2021/01/04 06:10:24;;;;;;;24.75;11.45;;;;;;;18.77;49.17;156059.08;1679070;84;20218;-79
2021/01/04 06:12:58;;;;;;;24.10;11.63;;;;;;;18.68;49.09;156036.69;1685483;82;21333;-80
2021/01/04 06:15:38;;;;;;;24.35;11.80;;;;;;;18.70;49.18;156040.63;1666122;85;21385;-80
2021/01/04 06:18:22;;;;;;;24.60;12.00;;;;;;;18.73;48.98;156049.84;1709318;84;21182;-80
2021/01/04 06:21:02;;;;;;;25.20;11.57;;;;;;;18.67;49.03;156034.03;1680989;85;21252;-79
2021/01/04 06:23:35;;;;;;;23.52;12.05;;;;;;;18.72;49.00;156045.91;1680915;85;21202;-80
2021/01/04 06:26:23;;;;;;;22.42;11.85;;;;;;;18.76;48.90;156056.44;1690804;83;21201;-80
2021/01/04 06:28:58;;;;;;;22.85;11.80;;;;;;;18.84;48.85;156077.59;1707900;83;21674;-80
2021/01/04 06:31:44;;;;;;;23.92;10.85;;;;;;;18.87;48.86;156086.83;1703527;83;21175;-80
2021/01/04 06:34:32;;;;;;;26.35;11.93;;;;;;;18.95;48.62;156107.94;1704467;83;21349;-80
2021/01/04 06:37:13;;;;;;;23.40;11.48;;;;;;;18.90;48.54;156093.42;1703873;83;21234;-81
2021/01/04 06:40:04;;;;;;;22.17;11.75;;;;;;;18.86;48.79;156084.19;1704086;83;21449;-80
2021/01/04 06:42:43;;;;;;;22.82;11.45;;;;;;;18.96;48.64;156109.30;1696622;83;21186;-81
2021/01/04 06:45:44;;;;;;;20.65;10.48;;;;;;;18.99;48.41;156118.53;1705346;83;21307;-81
2021/01/04 06:48:45;;;;;;;20.68;10.30;;;;;;;19.00;48.37;156119.81;1707970;83;21194;-80
2021/01/04 06:52:11;;;;;;;22.85;11.15;;;;;;;18.99;48.42;156117.19;1707441;83;21419;-80
2021/01/04 06:55:09;;;;;;;24.70;11.18;;;;;;;19.03;48.41;156129.11;1704412;83;21223;-80
2021/01/04 06:57:55;;;;;;;26.17;11.28;;;;;;;19.07;48.32;156139.64;1708581;83;21225;-79
2021/01/04 07:00:49;;;;;;;24.23;12.65;;;;;;;19.05;48.32;156134.34;1695406;83;21377;-79
2021/01/04 07:03:46;;;;;;;23.30;11.40;;;;;;;19.15;48.06;156162.16;1709256;83;21356;-79
2021/01/04 07:06:40;;;;;;;22.60;11.22;;;;;;;19.11;48.15;156151.58;1708316;83;22617;-79
2021/01/04 07:09:42;;;;;;;21.77;10.80;;;;;;;19.15;48.07;156162.16;1707647;83;21229;-79
2021/01/04 07:12:31;;;;;;;27.77;12.18;;;;;;;19.13;48.08;156155.56;1651134;83;21213;-79
2021/01/04 07:15:29;;;;;;;23.92;12.23;;;;;;;19.10;48.09;156147.58;1712974;82;21237;-80
2021/01/04 07:18:15;;;;;;;22.98;11.55;;;;;;;19.16;48.12;156163.45;1703014;83;21807;-80
2021/01/04 07:21:30;;;;;;;25.30;11.73;;;;;;;19.21;48.25;156176.69;1705584;82;21797;-78
2021/01/04 07:24:40;;;;;;;24.32;12.60;;;;;;;19.18;48.24;156168.75;1706051;83;21205;-80
2021/01/04 07:27:43;;;;;;;25.63;12.50;;;;;;;19.29;47.99;156197.81;1674007;83;21331;-79
2021/01/04 07:30:32;;;;;;;24.82;12.80;;;;;;;19.30;48.10;156200.44;1706166;83;21368;-80
2021/01/04 07:33:25;;;;;;;21.27;11.10;;;;;;;19.36;48.05;156217.62;1707607;83;21403;-82
2021/01/04 07:36:13;;;;;;;25.20;11.73;;;;;;;19.40;48.11;156228.22;1705104;83;21193;-81
2021/01/04 07:38:53;;;;;;;23.38;11.53;;;;;;;19.36;48.49;156217.62;1704761;83;21390;-81
2021/01/04 07:41:54;;;;;;;23.47;11.85;;;;;;;19.42;48.39;156233.50;1706338;82;21273;-81
2021/01/04 07:44:38;;;;;;;;;;;;;;;19.28;48.49;156196.50;1708360;83;21801;-80
2021/01/04 07:47:43;;;;;;;25.00;11.40;;;;;;;19.31;48.49;156203.09;1707840;83;20295;-81
2021/01/04 07:51:06;;;;;;;26.10;11.45;;;;;;;19.36;48.42;156216.33;1704663;83;21237;-80
2021/01/04 07:53:58;;;;;;;22.50;11.60;;;;;;;19.40;48.36;156226.86;1704580;83;21312;-81
2021/01/04 07:57:01;;;;;;;22.45;11.57;;;;;;;19.48;48.21;156249.33;1703940;83;21199;-80
2021/01/04 08:00:01;;;;;;;24.32;11.43;;;;;;;19.39;48.06;156225.56;1705017;83;21195;-80
2021/01/04 08:03:03;;;;;;;23.50;12.80;;;;;;;19.51;48.14;156257.28;1704028;83;21238;-80
2021/01/04 08:06:15;;;;;;;25.05;11.65;;;;;;;19.51;48.13;156255.92;1700948;83;21206;-81
2021/01/04 08:08:51;;;;;;;30.62;13.68;;;;;;;19.53;48.02;156261.22;1705537;83;21224;-80
2021/01/04 08:11:43;;;;;;;26.45;13.53;;;;;;;19.50;47.98;156253.33;1704415;83;21202;-80
2021/01/04 08:14:45;;;;;;;28.38;13.90;;;;;;;19.57;47.91;156271.81;1703138;83;21317;-81
2021/01/04 08:17:32;;;;;;;25.12;13.80;;;;;;;19.56;47.82;156270.45;1708928;81;21189;-80
2021/01/04 08:20:05;;;;;;;27.17;12.63;;;;;;;19.53;48.08;156262.56;1726024;81;21277;-80
2021/01/04 08:23:06;;;;;;;26.30;13.62;;;;;;;19.55;48.05;156266.50;1722929;81;21228;-81
2021/01/04 08:25:59;;;;;;;;;;;;;;;19.59;48.17;156278.39;1723324;82;21317;-80
2021/01/04 08:29:03;;;;;;;29.15;14.33;;;;;;;19.76;47.81;156323.34;1704290;83;20336;-80
2021/01/04 08:31:52;;;;;;;27.07;13.62;;;;;;;19.75;47.67;156319.34;1649870;85;21702;-79
2021/01/04 08:34:24;;;;;;;26.20;13.55;;;;;;;19.64;47.87;156291.63;1659163;86;21198;-80
2021/01/04 08:36:59;;;;;;;29.85;13.68;;;;;;;19.65;48.02;156292.94;1690610;84;21248;-80
2021/01/04 08:39:48;;;;;;;30.40;13.85;;;;;;;19.52;48.18;156259.92;1692544;84;21222;-81
2021/01/04 08:42:28;;;;;;;27.27;12.68;;;;;;;19.69;47.93;156304.81;1695131;84;21177;-81
2021/01/04 08:45:13;;;;;;;27.15;12.73;;;;;;;19.84;47.69;156344.47;1692388;83;21793;-80
2021/01/04 08:47:52;;;;;;;26.27;13.65;;;;;;;19.93;47.65;156368.25;1675229;83;21420;-73
2021/01/04 08:50:36;;;;;;;28.65;13.38;;;;;;;19.90;47.46;156359.00;1686180;83;21445;-79
2021/01/04 08:53:22;;;;;;;27.77;13.38;;;;;;;19.83;47.35;156340.53;1688622;83;21703;-78
2021/01/04 08:56:31;;;;;;;25.35;12.20;;;;;;;19.98;47.28;156381.53;1703265;83;21368;-82
2021/01/04 08:59:16;;;;;;;29.35;13.43;;;;;;;19.94;47.51;156369.59;1721129;81;21144;-80
2021/01/04 09:01:58;;;;;;;75.28;33.15;;;;;;;19.98;47.61;156382.84;1713274;81;21178;-78
2021/01/04 09:04:38;;;;;;;63.60;32.23;;;;;;;20.10;47.56;156413.27;1712355;81;21754;-80
2021/01/04 09:07:22;;;;;;;43.17;23.12;;;;;;;20.22;47.42;156446.28;1711732;82;21208;-79
2021/01/04 09:10:02;;;;;;;32.78;16.15;;;;;;;20.26;47.40;156455.53;1713280;81;21227;-78
2021/01/04 09:12:45;;;;;;;27.62;15.00;;;;;;;20.40;47.30;156493.91;1709562;82;21199;-77
2021/01/04 09:15:28;;;;;;;25.35;13.30;;;;;;;20.48;46.93;156515.05;1712400;81;21361;-78
2021/01/04 09:18:16;;;;;;;26.07;13.80;;;;;;;20.54;47.03;156529.59;1712745;82;22801;-80
2021/01/04 09:21:33;;;;;;;28.10;15.10;;;;;;;20.66;46.34;156561.34;1685035;83;21684;-76
2021/01/04 09:24:25;;;;;;;29.35;13.93;;;;;;;20.53;46.42;156526.94;1694802;83;21348;-75
2021/01/04 09:27:08;;;;;;;26.73;13.62;;;;;;;20.31;46.65;156468.78;1709654;82;21234;-84
2021/01/04 09:29:44;;;;;;;28.47;13.95;;;;;;;20.32;46.79;156472.72;1711152;82;21227;-79
2021/01/04 09:32:19;;;;;;;27.45;13.38;;;;;;;20.25;46.94;156452.94;1694520;83;21645;-78
2021/01/04 09:34:52;;;;;;;29.55;14.35;;;;;;;20.46;46.63;156508.45;1681949;84;21802;-79
2021/01/04 09:37:27;;;;;;;28.05;13.98;;;;;;;20.58;46.41;156541.50;1714796;83;21213;-78
2021/01/04 09:40:07;;;;;;;30.48;14.38;;;;;;;20.39;46.55;156489.91;1714706;83;21207;-78
2021/01/04 09:42:39;;;;;;;26.45;13.28;;;;;;;20.35;46.67;156479.38;1713373;83;21958;-79
2021/01/04 09:45:15;;;;;;;32.28;13.75;;;;;;;20.03;46.95;156396.08;1711836;83;21275;-78
2021/01/04 09:47:57;;;;;;;29.40;14.40;;;;;;;19.79;47.21;156331.23;1715711;82;21180;-77
2021/01/04 09:50:36;;;;;;;28.35;14.23;;;;;;;19.91;47.30;156362.95;1714133;83;21196;-81
2021/01/04 09:53:30;;;;;;;30.02;14.45;;;;;;;19.78;47.44;156328.64;1714227;82;21228;-78
2021/01/04 09:56:13;;;;;;;31.35;14.43;;;;;;;19.95;47.35;156372.25;1713107;83;21306;-79
2021/01/04 09:58:47;;;;;;;32.17;15.75;;;;;;;20.11;47.10;156415.91;1682043;85;21336;-80
2021/01/04 10:01:20;;;;;;;29.92;15.03;;;;;;;20.02;47.20;156392.13;1713135;83;21220;-79
2021/01/04 10:03:58;;;;;;;33.75;16.37;;;;;;;20.10;47.17;156413.27;1681324;85;21699;-80
2021/01/04 10:06:33;;;;;;;31.00;14.98;;;;;;;19.89;47.19;156357.72;1714175;83;21181;-81
2021/01/04 10:09:11;;;;;;;37.30;19.17;;;;;;;19.91;47.25;156361.66;1712990;82;21201;-79
2021/01/04 10:11:47;;;;;;;40.20;19.55;;;;;;;20.01;47.15;156390.78;1681092;85;21385;-74
2021/01/04 10:14:20;;;;;;;46.88;21.93;;;;;;;20.01;47.27;156390.78;1720367;82;21241;-76
2021/01/04 10:16:56;;;;;;;43.55;19.30;;;;;;;20.06;47.24;156402.67;1713795;82;21231;-79
2021/01/04 10:19:38;;;;;;;47.62;22.37;;;;;;;20.12;47.23;156418.56;1710462;82;21232;-76
2021/01/04 10:22:18;;;;;;;39.13;19.23;;;;;;;20.30;46.87;156467.48;1706090;82;21387;-82
2021/01/04 10:25:01;;;;;;;42.35;20.10;;;;;;;20.37;46.84;156484.67;1706215;83;21232;-76
2021/01/04 10:27:37;;;;;;;43.90;21.17;;;;;;;20.21;46.91;156442.34;1708427;82;21410;-75
2021/01/04 10:30:13;;;;;;;43.98;20.02;;;;;;;20.13;47.01;156421.22;1709381;83;21252;-79
2021/01/04 10:32:46;;;;;;;49.77;22.22;;;;;;;20.08;47.12;156407.97;1687716;83;21926;-80
2021/01/04 10:35:23;;;;;;;45.38;23.52;;;;;;;20.02;47.17;156392.13;1705354;83;21229;-77
2021/01/04 10:38:15;;;;;;;45.65;19.73;;;;;;;20.08;46.98;156409.27;1706074;83;21340;-82
2021/01/04 10:40:49;;;;;;;47.00;20.65;;;;;;;19.98;46.99;156382.84;1705722;82;21278;-83
2021/01/04 10:43:25;;;;;;;43.38;19.65;;;;;;;19.89;47.10;156356.36;1705492;83;21478;-84
2021/01/04 10:45:59;;;;;;;43.10;20.23;;;;;;;19.82;47.20;156339.19;1705454;83;21685;-77
2021/01/04 10:48:34;;;;;;;47.13;21.85;;;;;;;19.95;47.12;156372.25;1705779;83;21918;-74
2021/01/04 10:51:09;;;;;;;44.13;19.12;;;;;;;20.05;46.95;156400.03;1705272;83;21835;-82
2021/01/04 10:53:42;;;;;;;40.78;19.57;;;;;;;20.12;46.83;156418.56;1688114;83;21184;-87
2021/01/04 10:56:19;;;;;;;46.98;19.00;;;;;;;20.12;46.87;156418.56;1705983;83;21363;-78
2021/01/04 10:59:22;;;;;;;41.30;20.37;;;;;;;20.11;46.94;156417.22;1704063;83;21372;-79
2021/01/04 11:01:57;;;;;;;41.83;19.60;;;;;;;20.18;46.87;156434.41;1705010;83;21249;-76
2021/01/04 11:04:29;;;;;;;45.38;17.92;;;;;;;20.25;46.88;156454.23;1704846;83;21221;-78
2021/01/04 11:07:19;;;;;;;41.73;19.42;;;;;;;20.22;46.71;156446.28;1705261;83;21238;-78
2021/01/04 11:09:51;;;;;;;48.90;22.30;;;;;;;20.29;46.54;156463.48;1705642;84;21902;-78
2021/01/04 11:12:28;;;;;;;45.65;19.27;;;;;;;20.35;46.48;156480.67;1705044;83;21379;-78
2021/01/04 11:15:04;;;;;;;40.35;17.87;;;;;;;20.15;46.82;156426.45;1705220;83;21174;-77
2021/01/04 11:17:37;;;;;;;39.05;17.42;;;;;;;19.98;46.88;156382.84;1705205;83;21451;-75
2021/01/04 11:20:15;;;;;;;39.42;18.40;;;;;;;19.85;46.98;156345.83;1707817;83;21886;-77
2021/01/04 11:22:47;;;;;;;47.43;19.77;;;;;;;19.77;47.12;156326.00;1712304;82;21379;-75
2021/01/04 11:25:20;;;;;;;74.62;31.37;;;;;;;19.79;47.20;156329.94;1689697;82;21458;-77
2021/01/04 11:27:52;;;;;;;58.87;25.43;;;;;;;19.91;47.28;156361.66;1702207;82;21320;-79
2021/01/04 11:30:25;;;;;;;74.82;28.23;;;;;;;20.07;47.08;156406.67;1683131;83;21321;-76
2021/01/04 11:33:02;;;;;;;63.52;22.50;;;;;;;20.09;47.24;156411.91;1702348;82;21273;-86
2021/01/04 11:35:35;;;;;;;39.95;17.95;;;;;;;20.09;47.04;156411.91;1711692;81;21807;-80
2021/01/04 11:38:08;;;;;;;42.05;17.10;;;;;;;20.01;46.93;156389.48;1711423;82;21451;-83
2021/01/04 11:40:40;;;;;;;35.23;16.93;;;;;;;19.87;47.18;156351.06;1713100;81;21262;-85
2021/01/04 11:43:13;;;;;;;40.28;16.65;;;;;;;19.86;47.40;156349.77;1701562;82;21839;-86
2021/01/04 11:45:46;;;;;;;37.13;16.60;;;;;;;19.91;47.39;156361.66;1682776;85;21232;-84
2021/01/04 11:48:18;;;;;;;37.85;15.75;;;;;;;20.03;47.12;156396.08;1682830;83;21492;-86
2021/01/04 11:50:51;;;;;;;36.45;16.93;;;;;;;19.82;47.35;156339.19;1682777;83;21195;-83
2021/01/04 11:53:24;;;;;;;39.03;15.65;;;;;;;19.92;47.34;156365.61;1683068;83;21734;-85
2021/01/04 11:55:57;;;;;;;41.28;17.00;;;;;;;19.98;47.37;156380.19;1681812;83;21172;-83
2021/01/04 11:58:30;;;;;;;39.98;16.97;;;;;;;20.13;47.11;156421.22;1681827;83;21188;-77
2021/01/04 12:01:02;;;;;;;36.13;17.12;;;;;;;20.23;47.09;156447.64;1683165;84;21724;-78
2021/01/04 12:03:35;;;;;;;35.68;16.40;;;;;;;20.18;46.89;156434.41;1683327;83;22388;-77
2021/01/04 12:06:09;;;;;;;31.75;15.28;;;;;;;20.32;46.67;156471.42;1653424;85;21307;-77
2021/01/04 12:08:42;;;;;;;35.75;14.38;;;;;;;20.21;46.88;156443.64;1701098;83;21174;-78
2021/01/04 12:11:16;;;;;;;32.55;15.15;;;;;;;20.18;46.87;156434.41;1710748;82;21499;-77
2021/01/04 12:13:49;;;;;;;43.05;18.95;;;;;;;20.14;47.07;156425.16;1711950;82;21185;-75
2021/01/04 12:16:21;;;;;;;36.77;16.77;;;;;;;20.20;46.96;156439.69;1712135;82;21193;-75
2021/01/04 12:18:54;;;;;;;41.20;17.27;;;;;;;20.12;46.96;156419.86;1701219;83;21867;-75
2021/01/04 12:21:27;;;;;;;39.90;16.42;;;;;;;20.07;47.18;156405.31;1680583;83;21327;-79
2021/01/04 12:24:00;;;;;;;35.38;16.30;;;;;;;20.22;47.16;156446.28;1672264;84;21244;-78
2021/01/04 12:26:32;;;;;;;41.60;16.62;;;;;;;20.24;47.24;156451.59;1672855;84;21998;-78
2021/01/04 12:29:05;;;;;;;41.70;16.60;;;;;;;20.40;47.16;156492.56;1673765;84;21216;-73
2021/01/04 12:31:38;;;;;;;32.17;15.68;;;;;;;20.61;46.91;156548.09;1674859;84;21517;-74